Airfield :
LOGIN :

Register | Disclaimer

   EN    FR    IT 

 










Legend :    VFR   Marginal VFR   IFR   Intensive IFR   Very Intensive IFR
Visi :
Ceiling :
>= 8 km
>= 3000ft
5 to 8 km
1000 to 3000 ft
1500m to 5 km
500 to 1000 ft
800 to 1500m
200 to 500 ft
< 800m
< 200 ft
Symbols :   Thunderstorms  Fog  Heavy snow  Heavy precipitations  Wind > 20 kt
SIGMETs :     Misc.  Thunderstorms  Icing  Turbulence  Mountain Waves  Volcanic Ashes







- Airport Elevation : 219 ft
- IATA code : DNR
- Download approach charts


LFRD - Dinard

CURRENT METAR :
  • 251400Z AUTO 21012KT 9999 FEW047/// BKN068/// BKN088/// ///TCU 11/08 Q1001 TEMPO 24017G30KT 3000 TSRAGS BKN015CB

EXPIRED METARs :
  • 251330Z AUTO 20012KT 9999 FEW026/// SCT046/// BKN060/// ///CB 11/07 Q1000 TEMPO 24017G30KT 3000 TSRAGS
  • 251300Z AUTO 21011KT 9999 SCT029/// BKN034/// BKN049/// ///CB 11/08 Q1000 TEMPO 24017G30KT 3000 TSRAGS
  • 251230Z AUTO 20015KT 9999 FEW030/// BKN054/// BKN064/// ///TCU 13/07 Q0999 TEMPO 24017G30KT 3000 TSRAGS BKN015CB
  • 251200Z AUTO 20015KT 9999 ///TCU 12/07 Q0999 TEMPO 24017G30KT 3000 TSRAGS BKN015CB
  • 251130Z AUTO 20010KT 9999 FEW027 SCT045 BKN056 11/08 Q0999 TEMPO 24017G30KT 3000 TSRAGS BKN015CB

TAF TAF LFRD
Valid from the 25 at 12:00 until the 26 at 12:00 UTC


251100Z 2512/2612 20012KT 9999 BKN030
TEMPO 2512/2521 24017G30KT 4000 SHRA BKN020CB
PROB40
TEMPO 2512/2518 3000 TSRAGS BKN015CB
PROB30
TEMPO 2521/2603 5000 SHRA SCT020CB BKN030
BECMG 2608/2610 27010KT
TEMPO 2610/2612 5000 SHRA BKN020TCU
ATIS : +33 2 99 16 81 50
No reported NOTAMs for that airfield.



MET'MAP, your aeronautical weather chart ! - Copyright ORBIFLY December 2007 - Disclaimer

ORBIFLY MET'MAP TEAM :

Programming & Development : Alexandra Zaïnal
Concept & Development : Baudouin d'Aumeries
Co-Development & Prog : Marc-Olivier Méhu
Technical & hardware support : Manuel Goepfert

Contact : metmap@orbifly.com




SOURCES & CREDITS :

   NOAA